createdAt,value
2023-01-18T00:01:19.943Z,4.96
2023-01-18T00:03:48.224Z,4.82
2023-01-18T00:06:16.627Z,4.79
2023-01-18T00:08:44.248Z,4.82
2023-01-18T00:11:18.520Z,4.81
2023-01-18T00:13:47.152Z,4.72
2023-01-18T00:16:21.786Z,4.78
2023-01-18T00:18:57.929Z,4.99
2023-01-18T00:21:27.585Z,5.00
2023-01-18T00:23:56.949Z,5.03
2023-01-18T00:26:24.272Z,5.08
2023-01-18T00:28:51.840Z,5.13
2023-01-18T00:31:21.571Z,5.17
2023-01-18T00:33:50.769Z,5.21
2023-01-18T00:36:19.280Z,5.31
2023-01-18T00:38:54.016Z,5.31
2023-01-18T00:41:22.842Z,5.26
2023-01-18T00:43:51.705Z,5.38
2023-01-18T00:46:28.321Z,5.45
2023-01-18T00:48:57.413Z,5.49
2023-01-18T00:51:25.653Z,5.45
2023-01-18T00:53:53.325Z,5.47
2023-01-18T00:56:23.425Z,5.31
2023-01-18T00:58:51.048Z,5.21
2023-01-18T01:01:18.666Z,5.13
2023-01-18T01:04:04.516Z,5.21
2023-01-18T01:06:45.446Z,5.12
2023-01-18T01:09:26.806Z,5.08
2023-01-18T01:12:13.517Z,5.08
2023-01-18T01:15:06.650Z,5.07
2023-01-18T01:17:55.652Z,5.11
2023-01-18T01:20:43.649Z,5.02
2023-01-18T01:23:39.583Z,5.03
2023-01-18T01:26:10.987Z,4.95
2023-01-18T01:28:51.135Z,5.01
2023-01-18T01:31:20.400Z,4.89
2023-01-18T01:33:50.756Z,4.98
2023-01-18T01:36:25.920Z,4.88
2023-01-18T01:38:53.786Z,5.13
2023-01-18T01:41:33.035Z,5.00
2023-01-18T01:44:20.586Z,4.86
2023-01-18T01:46:59.025Z,4.78
2023-01-18T01:49:43.033Z,4.61
2023-01-18T01:52:20.612Z,4.60
2023-01-18T01:55:15.978Z,4.56
2023-01-18T01:58:11.130Z,4.71
2023-01-18T02:00:38.478Z,4.57
2023-01-18T02:03:10.657Z,4.67
2023-01-18T02:06:13.393Z,4.69
2023-01-18T02:08:41.367Z,4.71
2023-01-18T02:11:08.647Z,4.50
2023-01-18T02:13:36.320Z,4.55
2023-01-18T02:16:35.883Z,4.61
2023-01-18T02:19:15.236Z,4.59
2023-01-18T02:21:57.943Z,4.56
2023-01-18T02:24:59.020Z,4.75
2023-01-18T02:27:43.701Z,4.52
2023-01-18T02:30:30.791Z,4.47
2023-01-18T02:33:04.098Z,4.56
2023-01-18T02:35:46.166Z,4.60
2023-01-18T02:38:31.585Z,4.57
2023-01-18T02:41:49.253Z,4.58
2023-01-18T02:44:45.659Z,4.56
2023-01-18T02:47:13.728Z,4.66
2023-01-18T02:49:41.790Z,4.59
2023-01-18T02:52:47.504Z,4.71
2023-01-18T02:56:03.869Z,4.67
2023-01-18T02:58:42.238Z,4.72
2023-01-18T03:01:47.569Z,4.64
2023-01-18T03:04:30.307Z,4.57
2023-01-18T03:07:12.840Z,4.60
2023-01-18T03:09:42.857Z,4.74
2023-01-18T03:12:47.258Z,4.66
2023-01-18T03:15:44.799Z,4.59
2023-01-18T03:18:20.908Z,4.67
2023-01-18T03:20:55.937Z,4.61
2023-01-18T03:23:42.041Z,4.57
2023-01-18T03:26:16.515Z,4.71
2023-01-18T03:29:14.382Z,4.57
2023-01-18T03:32:18.650Z,4.64
2023-01-18T03:34:54.409Z,4.60
2023-01-18T03:37:31.809Z,4.77
2023-01-18T03:40:19.903Z,4.65
2023-01-18T03:43:09.462Z,4.61
2023-01-18T03:45:43.611Z,4.65
2023-01-18T03:48:12.973Z,4.55
2023-01-18T03:51:02.481Z,4.53
2023-01-18T03:53:48.148Z,4.59
2023-01-18T03:56:59.232Z,4.43
2023-01-18T03:59:35.775Z,4.33
2023-01-18T04:02:09.129Z,4.09
2023-01-18T04:04:36.808Z,4.08
2023-01-18T04:07:04.836Z,4.05
2023-01-18T04:09:32.458Z,4.20
2023-01-18T04:11:59.697Z,4.32
2023-01-18T04:14:27.227Z,4.34
2023-01-18T04:16:54.440Z,4.21
2023-01-18T04:19:22.010Z,4.16
2023-01-18T04:21:49.304Z,4.12
2023-01-18T04:24:17.369Z,4.31
2023-01-18T04:26:44.673Z,4.22
2023-01-18T04:29:12.384Z,4.38
2023-01-18T04:31:39.728Z,4.23
2023-01-18T04:34:07.461Z,4.16
2023-01-18T04:36:34.683Z,4.27
2023-01-18T04:39:03.061Z,4.24
2023-01-18T04:41:30.373Z,4.24
2023-01-18T04:43:57.923Z,4.12
2023-01-18T04:46:25.234Z,4.15
2023-01-18T04:48:53.064Z,4.25
2023-01-18T04:51:21.080Z,4.32
2023-01-18T04:53:48.636Z,4.32
2023-01-18T04:56:16.985Z,4.40
2023-01-18T04:58:44.791Z,4.22
2023-01-18T05:01:14.022Z,4.10
2023-01-18T05:03:41.794Z,4.28
2023-01-18T05:06:15.348Z,4.35
2023-01-18T05:08:43.330Z,4.44
2023-01-18T05:11:14.621Z,4.53
2023-01-18T05:13:43.806Z,4.59
2023-01-18T05:16:21.413Z,4.69
2023-01-18T05:18:49.790Z,4.82
2023-01-18T05:21:17.467Z,4.91
2023-01-18T05:23:45.125Z,4.98
2023-01-18T05:26:23.640Z,5.08
2023-01-18T05:28:57.341Z,5.17
2023-01-18T05:31:25.020Z,5.22
2023-01-18T05:33:53.227Z,5.22
2023-01-18T05:36:20.589Z,5.29
2023-01-18T05:38:48.258Z,5.32
2023-01-18T05:41:15.640Z,5.27
2023-01-18T05:43:43.349Z,5.26
2023-01-18T05:46:10.679Z,5.29
2023-01-18T05:48:38.422Z,5.22
2023-01-18T05:51:11.697Z,5.13
2023-01-18T05:53:40.608Z,5.16
2023-01-18T05:56:09.664Z,4.99
2023-01-18T05:58:38.443Z,4.93
2023-01-18T06:01:07.771Z,4.70
2023-01-18T06:03:36.974Z,4.57
2023-01-18T06:06:04.589Z,4.46
2023-01-18T06:08:32.837Z,4.45
2023-01-18T06:11:00.809Z,4.44
2023-01-18T06:13:31.664Z,4.49
2023-01-18T06:16:01.187Z,4.51
2023-01-18T06:18:32.856Z,4.58
2023-01-18T06:21:03.337Z,4.63
2023-01-18T06:23:31.441Z,4.64
2023-01-18T06:25:59.089Z,4.58
2023-01-18T06:28:29.675Z,4.51
2023-01-18T06:30:58.156Z,4.51
2023-01-18T06:33:25.916Z,4.46
2023-01-18T06:35:53.201Z,4.48
2023-01-18T06:38:20.851Z,4.43
2023-01-18T06:40:48.276Z,4.48
2023-01-18T06:43:16.984Z,4.52
2023-01-18T06:45:44.379Z,4.52
2023-01-18T06:48:11.993Z,4.57
2023-01-18T06:50:39.289Z,4.57
2023-01-18T06:53:06.898Z,4.59
2023-01-18T06:55:34.768Z,4.55
2023-01-18T06:58:02.799Z,4.54
2023-01-18T07:00:30.164Z,4.59
2023-01-18T07:02:58.666Z,4.65
2023-01-18T07:05:26.254Z,4.73
2023-01-18T07:07:53.860Z,4.87
2023-01-18T07:10:21.238Z,4.93
2023-01-18T07:12:50.965Z,4.98
2023-01-18T07:15:22.917Z,4.97
2023-01-18T07:17:51.087Z,4.97
2023-01-18T07:20:19.971Z,4.99
2023-01-18T07:22:52.818Z,5.04
2023-01-18T07:25:20.925Z,5.07
2023-01-18T07:27:49.231Z,5.07
2023-01-18T07:30:17.619Z,5.05
2023-01-18T07:32:53.357Z,5.08
2023-01-18T07:35:22.301Z,5.12
2023-01-18T07:37:53.294Z,5.23
2023-01-18T07:40:22.270Z,5.29
2023-01-18T07:42:57.253Z,5.33
2023-01-18T07:45:24.721Z,5.29
2023-01-18T07:47:53.610Z,5.39
2023-01-18T07:50:22.426Z,5.39
2023-01-18T07:52:50.037Z,5.48
2023-01-18T07:55:17.326Z,5.56
2023-01-18T07:57:44.856Z,5.60
2023-01-18T08:00:14.389Z,5.57
2023-01-18T08:02:42.047Z,5.59
2023-01-18T08:05:10.728Z,5.60
2023-01-18T08:07:38.408Z,5.73
2023-01-18T08:10:06.319Z,5.81
2023-01-18T08:12:33.924Z,5.79
2023-01-18T08:15:01.241Z,5.76
2023-01-18T08:17:29.886Z,5.77
2023-01-18T08:19:57.528Z,5.82
2023-01-18T08:22:25.217Z,5.88
2023-01-18T08:24:52.595Z,5.90
2023-01-18T08:27:20.254Z,5.94
2023-01-18T08:29:48.252Z,5.93
2023-01-18T08:32:16.452Z,5.97
2023-01-18T08:34:43.799Z,5.98
2023-01-18T08:37:12.018Z,6.03
2023-01-18T08:39:39.341Z,6.01
2023-01-18T08:42:07.052Z,5.90
2023-01-18T08:44:34.387Z,5.86
2023-01-18T08:47:02.157Z,5.78
2023-01-18T08:49:29.466Z,5.63
2023-01-18T08:51:58.209Z,5.69
2023-01-18T08:54:25.464Z,5.76
2023-01-18T08:56:53.249Z,5.70
2023-01-18T08:59:21.134Z,5.75
2023-01-18T09:01:48.853Z,5.72
2023-01-18T09:04:16.199Z,5.69
2023-01-18T09:06:44.870Z,5.51
2023-01-18T09:09:12.881Z,5.54
2023-01-18T09:11:40.497Z,5.37
2023-01-18T09:14:08.061Z,5.33
2023-01-18T09:16:36.285Z,5.28
2023-01-18T09:19:06.534Z,5.23
2023-01-18T09:21:34.482Z,5.34
2023-01-18T09:24:02.412Z,5.32
2023-01-18T09:26:30.735Z,5.21
2023-01-18T09:28:58.481Z,5.28
2023-01-18T09:31:28.814Z,5.27
2023-01-18T09:34:09.534Z,5.05
2023-01-18T09:36:45.101Z,5.03
2023-01-18T09:39:12.377Z,5.03
2023-01-18T09:41:44.804Z,5.09
2023-01-18T09:44:36.284Z,5.04
2023-01-18T09:47:24.679Z,4.97
2023-01-18T09:50:02.490Z,4.95
2023-01-18T09:52:33.138Z,4.89
2023-01-18T09:55:37.390Z,4.88
2023-01-18T09:58:38.015Z,4.71
2023-01-18T10:01:23.737Z,4.90
2023-01-18T10:04:03.072Z,4.74
2023-01-18T10:07:00.508Z,4.61
2023-01-18T10:09:42.050Z,4.64
2023-01-18T10:12:17.962Z,4.62
2023-01-18T10:14:57.804Z,4.61
2023-01-18T10:17:41.605Z,4.41
2023-01-18T10:20:35.727Z,4.60
2023-01-18T10:23:54.954Z,4.46
2023-01-18T10:26:31.732Z,4.45
2023-01-18T10:29:17.118Z,4.43
2023-01-18T10:32:11.068Z,4.50
2023-01-18T10:34:48.297Z,4.45
2023-01-18T10:37:46.780Z,4.47
2023-01-18T10:40:15.466Z,4.63
2023-01-18T10:42:48.042Z,4.59
2023-01-18T10:45:22.317Z,4.68
2023-01-18T10:47:53.013Z,4.65
2023-01-18T10:50:44.170Z,4.78
2023-01-18T10:53:24.249Z,4.86
2023-01-18T10:56:18.073Z,5.03
2023-01-18T10:58:58.031Z,5.13
2023-01-18T11:01:36.225Z,5.13
2023-01-18T11:04:22.900Z,4.99
2023-01-18T11:06:56.609Z,4.86
2023-01-18T11:09:55.726Z,4.89
2023-01-18T11:12:42.380Z,4.99
2023-01-18T11:15:16.079Z,4.97
2023-01-18T11:18:02.064Z,4.68
2023-01-18T11:20:50.947Z,4.65
2023-01-18T11:23:37.790Z,4.49
2023-01-18T11:26:19.216Z,4.32
2023-01-18T11:28:55.047Z,4.45
2023-01-18T11:31:26.087Z,4.54
2023-01-18T11:33:59.186Z,4.54
2023-01-18T11:36:42.705Z,4.36
2023-01-18T11:39:26.922Z,4.48
2023-01-18T11:42:21.761Z,4.56
2023-01-18T11:44:49.324Z,4.75
2023-01-18T11:47:31.313Z,4.76
2023-01-18T11:50:49.185Z,4.93
2023-01-18T11:54:04.510Z,5.00
2023-01-18T11:56:51.688Z,4.90
2023-01-18T11:59:30.590Z,4.92
2023-01-18T12:02:56.272Z,4.87
2023-01-18T12:05:45.908Z,4.61
2023-01-18T12:08:38.564Z,4.46
2023-01-18T12:11:21.875Z,4.36
2023-01-18T12:14:01.195Z,4.31
2023-01-18T12:17:08.452Z,4.31
2023-01-18T12:20:21.110Z,4.27
2023-01-18T12:23:23.552Z,4.23
2023-01-18T12:26:12.302Z,4.38
2023-01-18T12:29:06.529Z,4.31
2023-01-18T12:32:21.078Z,4.38
2023-01-18T12:35:24.813Z,4.26
2023-01-18T12:38:17.510Z,4.27
2023-01-18T12:41:19.115Z,4.21
2023-01-18T12:44:14.069Z,4.21
2023-01-18T12:46:52.009Z,4.12
2023-01-18T12:49:22.095Z,4.13
2023-01-18T12:52:12.778Z,3.96
2023-01-18T12:54:55.672Z,4.00
2023-01-18T12:57:26.056Z,3.95
2023-01-18T13:00:21.601Z,3.95
2023-01-18T13:02:57.178Z,3.93
2023-01-18T13:06:04.147Z,3.93
2023-01-18T13:09:05.528Z,3.87
2023-01-18T13:11:43.395Z,3.93
2023-01-18T13:14:33.601Z,3.83
2023-01-18T13:17:45.930Z,3.92
2023-01-18T13:20:25.887Z,3.88
2023-01-18T13:23:26.104Z,3.89
2023-01-18T13:26:29.551Z,3.94
2023-01-18T13:29:10.330Z,3.83
2023-01-18T13:31:38.628Z,3.85
2023-01-18T13:34:47.748Z,3.94
2023-01-18T13:37:48.432Z,3.87
2023-01-18T13:40:41.449Z,3.89
2023-01-18T13:43:37.018Z,4.08
2023-01-18T13:46:07.250Z,4.20
2023-01-18T13:48:59.179Z,4.16
2023-01-18T13:51:41.993Z,4.19
2023-01-18T13:54:21.945Z,4.15
2023-01-18T13:57:01.491Z,4.07
2023-01-18T13:59:47.750Z,4.11
2023-01-18T14:02:42.726Z,3.97
2023-01-18T14:05:34.383Z,4.04
2023-01-18T14:08:03.106Z,4.16
2023-01-18T14:10:36.739Z,4.21
2023-01-18T14:13:14.135Z,4.21
2023-01-18T14:15:53.527Z,4.22
2023-01-18T14:18:26.506Z,4.26
2023-01-18T14:21:09.274Z,4.47
2023-01-18T14:24:32.355Z,4.32
2023-01-18T14:27:01.238Z,4.28
2023-01-18T14:30:26.038Z,4.36
2023-01-18T14:33:11.411Z,4.46
2023-01-18T14:35:39.214Z,4.43
2023-01-18T14:38:18.920Z,4.50
2023-01-18T14:40:58.391Z,4.56
2023-01-18T14:43:44.977Z,4.56
2023-01-18T14:46:25.959Z,4.49
2023-01-18T14:49:01.936Z,4.63
2023-01-18T14:51:30.666Z,4.55
2023-01-18T14:54:02.166Z,4.53
2023-01-18T14:56:34.962Z,4.58
2023-01-18T14:59:23.147Z,4.65
2023-01-18T15:02:00.476Z,4.55
2023-01-18T15:04:34.945Z,4.64
2023-01-18T15:07:17.409Z,4.72
2023-01-18T15:09:47.155Z,4.87
2023-01-18T15:12:24.155Z,4.82
2023-01-18T15:14:51.858Z,4.76
2023-01-18T15:17:26.209Z,4.65
2023-01-18T15:20:05.342Z,4.70
2023-01-18T15:22:38.233Z,4.65
2023-01-18T15:25:25.354Z,4.69
2023-01-18T15:27:54.355Z,4.77
2023-01-18T15:30:25.045Z,4.80
2023-01-18T15:32:58.468Z,4.72
2023-01-18T15:35:26.952Z,4.83
2023-01-18T15:37:54.546Z,4.82
2023-01-18T15:40:27.136Z,4.83
2023-01-18T15:43:02.439Z,4.76
2023-01-18T15:45:49.664Z,4.89
2023-01-18T15:48:22.598Z,4.82
2023-01-18T15:50:55.600Z,4.75
2023-01-18T15:53:34.652Z,4.85
2023-01-18T15:56:27.884Z,4.84
2023-01-18T15:58:59.554Z,4.87
2023-01-18T16:01:34.083Z,4.82
2023-01-18T16:04:04.180Z,4.77
2023-01-18T16:06:37.178Z,4.74
2023-01-18T16:09:12.894Z,4.75
2023-01-18T16:11:52.094Z,4.71
2023-01-18T16:14:28.624Z,4.73
2023-01-18T16:17:15.455Z,4.78
2023-01-18T16:19:48.509Z,4.68
2023-01-18T16:22:35.507Z,4.66
2023-01-18T16:25:11.172Z,4.74
2023-01-18T16:27:52.771Z,4.60
2023-01-18T16:30:25.773Z,4.62
2023-01-18T16:32:53.464Z,4.71
2023-01-18T16:35:23.770Z,4.65
2023-01-18T16:37:52.161Z,4.62
2023-01-18T16:40:23.372Z,4.69
2023-01-18T16:43:05.049Z,4.70
2023-01-18T16:45:38.607Z,4.70
2023-01-18T16:48:09.004Z,4.78
2023-01-18T16:50:38.021Z,4.78
2023-01-18T16:53:05.743Z,4.82
2023-01-18T16:55:33.149Z,4.81
2023-01-18T16:58:01.139Z,4.79
2023-01-18T17:00:52.013Z,4.86
2023-01-18T17:03:19.982Z,4.82
2023-01-18T17:05:47.730Z,4.79
2023-01-18T17:08:15.719Z,4.88
2023-01-18T17:10:47.523Z,4.88
2023-01-18T17:13:16.027Z,4.81
2023-01-18T17:15:45.581Z,4.78
2023-01-18T17:18:25.825Z,4.66
2023-01-18T17:20:55.033Z,4.75
2023-01-18T17:23:25.681Z,4.78
2023-01-18T17:25:53.043Z,4.73
2023-01-18T17:28:20.747Z,4.71
2023-01-18T17:30:50.198Z,4.76
2023-01-18T17:33:24.931Z,4.74
2023-01-18T17:35:54.710Z,4.72
2023-01-18T17:38:25.158Z,4.82
2023-01-18T17:40:53.423Z,4.60
2023-01-18T17:43:33.355Z,4.61
2023-01-18T17:46:06.427Z,4.56
2023-01-18T17:48:34.816Z,4.48
2023-01-18T17:51:09.795Z,4.49
2023-01-18T17:53:39.940Z,4.34
2023-01-18T17:56:14.043Z,4.43
2023-01-18T17:58:42.314Z,4.36
2023-01-18T18:01:13.626Z,4.37
2023-01-18T18:03:48.082Z,4.37
2023-01-18T18:06:26.060Z,4.33
2023-01-18T18:08:58.483Z,4.40
2023-01-18T18:11:26.109Z,4.46
2023-01-18T18:13:54.387Z,4.57
2023-01-18T18:16:22.501Z,4.51
2023-01-18T18:18:51.886Z,4.68
2023-01-18T18:21:19.592Z,4.71
2023-01-18T18:23:47.376Z,4.63
2023-01-18T18:26:14.862Z,4.70
2023-01-18T18:28:42.811Z,4.74
2023-01-18T18:31:16.202Z,4.79
2023-01-18T18:33:45.163Z,4.66
2023-01-18T18:36:12.433Z,4.65
2023-01-18T18:38:40.188Z,4.79
2023-01-18T18:41:09.073Z,4.84
2023-01-18T18:43:36.785Z,4.73
2023-01-18T18:46:04.136Z,4.78
2023-01-18T18:48:31.779Z,4.84
2023-01-18T18:50:59.093Z,4.65
2023-01-18T18:53:37.586Z,4.57
2023-01-18T18:56:09.685Z,4.50
2023-01-18T18:58:41.307Z,4.57
2023-01-18T19:01:21.601Z,4.40
2023-01-18T19:03:51.976Z,4.33
2023-01-18T19:06:22.335Z,4.35
2023-01-18T19:08:50.739Z,4.25
2023-01-18T19:11:18.851Z,4.38
2023-01-18T19:13:49.340Z,4.24
2023-01-18T19:16:17.369Z,4.14
2023-01-18T19:18:45.243Z,4.10
2023-01-18T19:21:12.691Z,4.09
2023-01-18T19:23:40.559Z,4.05
2023-01-18T19:26:07.937Z,4.08
2023-01-18T19:28:36.747Z,4.00
2023-01-18T19:31:06.659Z,3.99
2023-01-18T19:33:35.106Z,3.91
2023-01-18T19:36:13.449Z,3.88
2023-01-18T19:38:46.036Z,4.08
2023-01-18T19:41:15.020Z,3.96
2023-01-18T19:43:45.773Z,3.83
2023-01-18T19:46:15.394Z,3.84
2023-01-18T19:48:44.040Z,3.77
2023-01-18T19:51:22.636Z,3.83
2023-01-18T19:53:54.623Z,3.71
2023-01-18T19:56:24.459Z,3.74
2023-01-18T19:58:52.290Z,3.68
2023-01-18T20:01:35.133Z,3.67
2023-01-18T20:04:06.232Z,3.69
2023-01-18T20:06:37.583Z,3.65
2023-01-18T20:09:17.705Z,3.60
2023-01-18T20:11:46.652Z,3.62
2023-01-18T20:14:14.709Z,3.58
2023-01-18T20:16:44.618Z,3.60
2023-01-18T20:19:20.296Z,3.63
2023-01-18T20:21:48.368Z,3.52
2023-01-18T20:24:16.497Z,3.51
2023-01-18T20:26:44.345Z,3.47
2023-01-18T20:29:13.202Z,3.53
2023-01-18T20:31:44.637Z,3.47
2023-01-18T20:34:16.272Z,3.59
2023-01-18T20:36:46.109Z,3.64
2023-01-18T20:39:14.083Z,3.63
2023-01-18T20:41:41.736Z,3.56
2023-01-18T20:44:09.688Z,3.56
2023-01-18T20:46:37.499Z,3.58
2023-01-18T20:49:05.196Z,3.49
2023-01-18T20:51:33.602Z,3.44
2023-01-18T20:54:02.356Z,3.47
2023-01-18T20:56:32.176Z,3.54
2023-01-18T20:58:59.924Z,3.49
2023-01-18T21:01:32.807Z,3.54
2023-01-18T21:04:03.987Z,3.45
2023-01-18T21:06:32.569Z,3.36
2023-01-18T21:09:01.339Z,3.35
2023-01-18T21:11:29.158Z,3.40
2023-01-18T21:13:59.406Z,3.32
2023-01-18T21:16:27.855Z,3.30
2023-01-18T21:18:56.580Z,3.28
2023-01-18T21:21:26.843Z,3.27
2023-01-18T21:23:54.572Z,3.29
2023-01-18T21:26:21.951Z,3.27
2023-01-18T21:28:49.700Z,3.24
2023-01-18T21:31:17.106Z,3.25
2023-01-18T21:33:44.988Z,3.44
2023-01-18T21:36:17.854Z,3.40
2023-01-18T21:38:46.216Z,3.42
2023-01-18T21:41:32.422Z,3.43
2023-01-18T21:44:18.640Z,3.43
2023-01-18T21:46:48.399Z,3.39
2023-01-18T21:52:40.590Z,3.40
2023-01-18T21:55:08.857Z,3.32
2023-01-18T21:57:36.785Z,3.34
2023-01-18T22:00:05.904Z,3.37
2023-01-18T22:02:34.513Z,3.32
2023-01-18T22:05:05.335Z,3.26
2023-01-18T22:07:34.596Z,3.13
2023-01-18T22:10:06.984Z,3.28
2023-01-18T22:12:36.522Z,3.37
2023-01-18T22:15:05.747Z,3.36
2023-01-18T22:17:33.094Z,3.20
2023-01-18T22:20:02.044Z,3.24
2023-01-18T22:22:29.537Z,3.31
2023-01-18T22:25:00.236Z,3.29
2023-01-18T22:27:27.905Z,3.28
2023-01-18T22:29:55.539Z,3.26
2023-01-18T22:32:22.981Z,3.30
2023-01-18T22:34:50.615Z,3.29
2023-01-18T22:37:17.935Z,3.35
2023-01-18T22:39:45.579Z,3.33
2023-01-18T22:42:12.892Z,3.45
2023-01-18T22:44:40.518Z,3.46
2023-01-18T22:47:07.945Z,3.41
2023-01-18T22:49:35.570Z,3.38
2023-01-18T22:52:02.884Z,3.53
2023-01-18T22:54:30.554Z,3.55
2023-01-18T22:56:57.832Z,3.51
2023-01-18T22:59:25.483Z,3.40
2023-01-18T23:01:52.812Z,3.44
2023-01-18T23:04:20.704Z,3.62
2023-01-18T23:06:50.820Z,3.55
2023-01-18T23:09:18.799Z,3.62
2023-01-18T23:11:48.100Z,3.66
2023-01-18T23:14:54.312Z,3.61
2023-01-18T23:17:39.840Z,3.68
2023-01-18T23:20:16.287Z,3.69
2023-01-18T23:22:45.128Z,3.69
2023-01-18T23:25:12.921Z,3.65
2023-01-18T23:27:40.253Z,3.50
2023-01-18T23:30:08.980Z,3.66
2023-01-18T23:32:37.460Z,3.66
2023-01-18T23:35:06.314Z,3.66
2023-01-18T23:37:33.872Z,3.68
2023-01-18T23:40:20.488Z,3.72
2023-01-18T23:43:06.280Z,3.77
2023-01-18T23:45:52.496Z,3.85
2023-01-18T23:48:38.927Z,3.83
2023-01-18T23:51:27.706Z,3.85
2023-01-18T23:54:15.549Z,3.81
2023-01-18T23:56:45.712Z,3.69
2023-01-18T23:59:14.209Z,3.77
